DLH02T EDDF-LPFR
Flight info
| Callsign | DLH02T |
|---|---|
| Flight time | N/A |
| Altitude | 34000 |
| Route | ANEKI2L/18 ANEKI DCT VABEN DCT OVTEC DCT OBORN DCT MOROK/N0450F350 DCT GILIR/N0457F370 DCT NINTU DCT MEBAK DCT REPSI DCT LERGA DCT MINSO DCT NARAK DCT AGN DCT PIPOR L866 PPN DCT MIRPO DCT DGO DCT NEA L14 ADINO DCT RAKOD DCT ELVAR DCT ALAGU DCT USALU |
| Aircraft | A21N/M-SDE2E3FGIJ1LORWXYZ/HB1 |
Departure
| Time | 2026-05-06 10:33 |
|---|---|
| Airport | Frankfurt Main Airport (EDDF) |
Arrival
| Time | N/A |
|---|---|
| Airport | Faro - Gago Coutinho International Airport (LPFR) |
| Time | Latitude | Longitude | Altitude | Speed | Heading |
|---|---|---|---|---|---|
| 2026-05-06 09:18 | 50.04766 | 8.58238 | 379 ft | 0 kts | 160° |
| 2026-05-06 10:22 | 50.04779 | 8.58230 | 380 ft | 2 kts | 160° |
| 2026-05-06 10:23 | 50.04793 | 8.58222 | 380 ft | 2 kts | 160° |
| 2026-05-06 10:23 | 50.04807 | 8.58214 | 380 ft | 2 kts | 160° |
| 2026-05-06 10:23 | 50.04821 | 8.58206 | 381 ft | 2 kts | 160° |
| 2026-05-06 10:23 | 50.04832 | 8.58200 | 381 ft | 1 kts | 189° |
| 2026-05-06 10:24 | 50.04841 | 8.58208 | 381 ft | 0 kts | 244° |
| 2026-05-06 10:24 | 50.04843 | 8.58217 | 381 ft | 1 kts | 252° |
| 2026-05-06 10:24 | 50.04843 | 8.58220 | 381 ft | 0 kts | 250° |
| 2026-05-06 10:25 | 50.04843 | 8.58217 | 381 ft | 2 kts | 250° |
| 2026-05-06 10:25 | 50.04814 | 8.58098 | 379 ft | 19 kts | 249° |
| 2026-05-06 10:26 | 50.04715 | 8.57899 | 373 ft | 26 kts | 230° |
| 2026-05-06 10:26 | 50.04642 | 8.57627 | 371 ft | 28 kts | 249° |
| 2026-05-06 10:26 | 50.04578 | 8.57356 | 372 ft | 25 kts | 250° |
| 2026-05-06 10:26 | 50.04518 | 8.57108 | 371 ft | 23 kts | 249° |
| 2026-05-06 10:27 | 50.04462 | 8.56874 | 370 ft | 23 kts | 250° |
| 2026-05-06 10:27 | 50.04406 | 8.56634 | 366 ft | 23 kts | 249° |
| 2026-05-06 10:27 | 50.04348 | 8.56399 | 363 ft | 23 kts | 251° |
| 2026-05-06 10:27 | 50.04290 | 8.56149 | 360 ft | 24 kts | 249° |
| 2026-05-06 10:28 | 50.04230 | 8.55906 | 357 ft | 24 kts | 250° |
| 2026-05-06 10:28 | 50.04172 | 8.55661 | 355 ft | 23 kts | 250° |
| 2026-05-06 10:28 | 50.04118 | 8.55432 | 356 ft | 22 kts | 250° |
| 2026-05-06 10:28 | 50.04065 | 8.55207 | 354 ft | 21 kts | 250° |
| 2026-05-06 10:29 | 50.04010 | 8.54980 | 348 ft | 24 kts | 250° |
| 2026-05-06 10:29 | 50.03944 | 8.54707 | 345 ft | 29 kts | 250° |
| 2026-05-06 10:29 | 50.03876 | 8.54428 | 343 ft | 26 kts | 249° |
| 2026-05-06 10:29 | 50.03791 | 8.54188 | 344 ft | 24 kts | 249° |
| 2026-05-06 10:30 | 50.03735 | 8.53955 | 347 ft | 22 kts | 250° |
| 2026-05-06 10:30 | 50.03682 | 8.53734 | 348 ft | 21 kts | 250° |
| 2026-05-06 10:30 | 50.03630 | 8.53525 | 347 ft | 20 kts | 249° |
| 2026-05-06 10:30 | 50.03578 | 8.53309 | 344 ft | 23 kts | 251° |
| 2026-05-06 10:31 | 50.03522 | 8.53072 | 342 ft | 23 kts | 250° |
| 2026-05-06 10:31 | 50.03464 | 8.52844 | 341 ft | 22 kts | 247° |
| 2026-05-06 10:31 | 50.03429 | 8.52713 | 340 ft | 0 kts | 249° |
| 2026-05-06 10:32 | 50.03419 | 8.52673 | 340 ft | 11 kts | 248° |
| 2026-05-06 10:32 | 50.03268 | 8.52593 | 337 ft | 37 kts | 181° |
| 2026-05-06 10:33 | 50.02769 | 8.52599 | 329 ft | 105 kts | 180° |
| 2026-05-06 10:33 | 50.01845 | 8.52610 | 376 ft | 153 kts | 181° |
| 2026-05-06 10:33 | 50.00822 | 8.52712 | 1009 ft | 146 kts | 179° |
| 2026-05-06 10:33 | 49.99771 | 8.52800 | 1441 ft | 158 kts | 181° |
| 2026-05-06 10:34 | 49.98660 | 8.52857 | 1973 ft | 165 kts | 182° |
| 2026-05-06 10:34 | 49.97485 | 8.52915 | 2427 ft | 176 kts | 182° |
| 2026-05-06 10:34 | 49.96202 | 8.52983 | 2807 ft | 192 kts | 181° |
| 2026-05-06 10:34 | 49.94819 | 8.53061 | 3187 ft | 209 kts | 181° |
| 2026-05-06 10:35 | 49.93314 | 8.53153 | 3558 ft | 226 kts | 181° |
| 2026-05-06 10:35 | 49.91677 | 8.53255 | 3993 ft | 242 kts | 180° |
| 2026-05-06 10:35 | 49.90006 | 8.53367 | 4907 ft | 237 kts | 181° |
| 2026-05-06 10:35 | 49.88394 | 8.53476 | 5687 ft | 236 kts | 181° |
| 2026-05-06 10:36 | 49.86751 | 8.53583 | 6414 ft | 238 kts | 181° |
| 2026-05-06 10:36 | 49.85074 | 8.53689 | 7075 ft | 244 kts | 181° |
| 2026-05-06 10:36 | 49.83385 | 8.53796 | 7766 ft | 247 kts | 181° |
| 2026-05-06 10:36 | 49.81665 | 8.53906 | 8515 ft | 247 kts | 181° |
| 2026-05-06 10:37 | 49.79955 | 8.54016 | 9237 ft | 248 kts | 181° |
| 2026-05-06 10:37 | 49.78262 | 8.54073 | 9935 ft | 248 kts | 184° |
| 2026-05-06 10:37 | 49.76536 | 8.53914 | 10502 ft | 254 kts | 187° |
| 2026-05-06 10:37 | 49.74725 | 8.53673 | 10819 ft | 271 kts | 187° |
| 2026-05-06 10:38 | 49.72772 | 8.53409 | 11123 ft | 287 kts | 187° |
| 2026-05-06 10:38 | 49.70740 | 8.53137 | 11478 ft | 301 kts | 187° |
| 2026-05-06 10:38 | 49.68645 | 8.52859 | 12066 ft | 305 kts | 187° |